Time;durP1;ratioP1;P1;durP2;ratioP2;P2;SDS_P1;SDS_P2;PMS_P1;PMS_P2;Temp;Humidity;BMP_temperature;BMP_pressure;BME280_temperature;BME280_humidity;BME280_pressure;Samples;Min_cycle;Max_cycle;Signal;HPM_P1;HPM_P2
2023/04/21 00:02:03;;;;;;;6.22;5.20;;;19.10;60.30;;;;;;4996827;28;20038;-67
2023/04/21 00:04:28;;;;;;;5.93;5.18;;;19.10;60.30;;;;;;5003560;28;20030;-66
2023/04/21 00:06:54;;;;;;;6.70;4.57;;;19.10;60.30;;;;;;4993766;28;20080;-67
2023/04/21 00:09:20;;;;;;;5.97;5.38;;;19.00;60.20;;;;;;4996629;28;20589;-67
2023/04/21 00:11:46;;;;;;;6.05;5.10;;;19.00;60.20;;;;;;4994562;28;20026;-67
2023/04/21 00:14:11;;;;;;;7.82;6.05;;;19.00;60.20;;;;;;5011310;28;20041;-67
2023/04/21 00:16:37;;;;;;;8.65;5.30;;;19.00;60.20;;;;;;4992463;28;20065;-67
2023/04/21 00:19:05;;;;;;;6.88;5.07;;;19.00;60.20;;;;;;4997500;28;20033;-67
2023/04/21 00:21:32;;;;;;;6.22;4.78;;;19.00;60.20;;;;;;4994679;28;20040;-67
2023/04/21 00:23:57;;;;;;;6.60;5.10;;;19.00;60.20;;;;;;4994712;28;20427;-67
2023/04/21 00:26:23;;;;;;;6.32;4.82;;;19.00;60.20;;;;;;4997634;28;20030;-67
2023/04/21 00:28:48;;;;;;;11.52;5.03;;;19.00;60.20;;;;;;4997893;28;20033;-67
2023/04/21 00:31:14;;;;;;;7.20;5.85;;;19.00;60.20;;;;;;4998801;28;20058;-67
2023/04/21 00:33:40;;;;;;;6.05;4.75;;;19.00;60.20;;;;;;4996753;28;20026;-67
2023/04/21 00:36:05;;;;;;;6.93;5.35;;;19.10;60.20;;;;;;4994204;28;20046;-68
2023/04/21 00:38:31;;;;;;;8.30;5.18;;;19.00;60.10;;;;;;4991537;28;20053;-67
2023/04/21 00:40:56;;;;;;;8.43;5.82;;;19.00;60.10;;;;;;4996889;28;20034;-66
2023/04/21 00:43:22;;;;;;;7.50;5.80;;;19.00;60.10;;;;;;4992494;28;20397;-67
2023/04/21 00:45:47;;;;;;;8.35;5.43;;;19.00;60.10;;;;;;4998948;28;20041;-67
2023/04/21 00:48:13;;;;;;;6.78;5.75;;;19.00;60.10;;;;;;4992591;28;20489;-66
2023/04/21 00:50:38;;;;;;;5.85;5.05;;;19.00;60.10;;;;;;4995092;28;20033;-67
2023/04/21 00:53:04;;;;;;;7.25;5.55;;;19.00;60.10;;;;;;4994080;28;20520;-66
2023/04/21 00:55:30;;;;;;;7.40;5.75;;;19.00;60.10;;;;;;4998545;28;20038;-66
2023/04/21 00:57:56;;;;;;;6.15;4.70;;;19.00;60.10;;;;;;4998552;28;20031;-67
2023/04/21 01:00:22;;;;;;;6.63;5.97;;;19.00;60.10;;;;;;4998746;28;20034;-67
2023/04/21 01:02:48;;;;;;;6.55;5.35;;;19.00;60.10;;;;;;5001070;28;20030;-67
2023/04/21 01:05:15;;;;;;;5.80;4.57;;;18.90;60.00;;;;;;4994966;28;20031;-67
2023/04/21 01:07:41;;;;;;;6.90;5.35;;;19.00;60.10;;;;;;4994089;28;20026;-67
2023/04/21 01:10:07;;;;;;;5.47;4.95;;;18.90;60.00;;;;;;4997184;28;20042;-67
2023/04/21 01:12:34;;;;;;;5.32;4.82;;;18.90;60.00;;;;;;4994780;28;20026;-66
2023/04/21 01:14:59;;;;;;;6.47;4.88;;;18.90;60.00;;;;;;5003348;28;20453;-67
2023/04/21 01:17:25;;;;;;;6.40;5.32;;;18.90;60.00;;;;;;4996078;28;20029;-67
2023/04/21 01:19:55;;;;;;;6.70;5.22;;;18.90;60.00;;;;;;4992686;28;20026;-66
2023/04/21 01:22:20;;;;;;;6.72;5.20;;;18.90;60.00;;;;;;4994699;28;20037;-67
2023/04/21 01:24:47;;;;;;;5.22;4.72;;;18.90;60.00;;;;;;4995209;28;20022;-66
2023/04/21 01:27:17;;;;;;;8.05;4.97;;;18.90;59.90;;;;;;4997823;28;20068;-66
2023/04/21 01:29:47;;;;;;;5.57;4.80;;;18.90;60.00;;;;;;4999132;28;20034;-66
2023/04/21 01:32:15;;;;;;;6.05;5.15;;;18.90;60.00;;;;;;4996179;28;20053;-67
2023/04/21 01:34:42;;;;;;;5.80;4.63;;;18.90;59.90;;;;;;4993398;28;20034;-67
2023/04/21 01:37:13;;;;;;;6.72;5.32;;;18.90;59.90;;;;;;4991241;28;20069;-66
2023/04/21 01:39:44;;;;;;;5.32;4.68;;;18.90;59.90;;;;;;4994814;28;20073;-67
2023/04/21 01:42:10;;;;;;;6.05;5.03;;;18.90;59.90;;;;;;5002857;28;20034;-66
2023/04/21 01:44:36;;;;;;;6.10;5.43;;;18.90;59.90;;;;;;4993341;28;20037;-66
2023/04/21 01:47:02;;;;;;;5.85;5.13;;;18.90;59.90;;;;;;4998288;28;20220;-67
2023/04/21 01:49:27;;;;;;;6.00;4.63;;;18.90;59.90;;;;;;4997024;28;20041;-66
2023/04/21 01:51:53;;;;;;;5.65;4.85;;;18.90;59.90;;;;;;4993115;28;20041;-66
2023/04/21 01:54:18;;;;;;;6.35;4.97;;;18.90;59.80;;;;;;4995929;28;20449;-67
2023/04/21 01:56:44;;;;;;;5.00;4.50;;;18.90;59.80;;;;;;4996926;28;20030;-67
2023/04/21 01:59:09;;;;;;;6.22;5.05;;;18.90;59.80;;;;;;4998981;28;20117;-67
2023/04/21 02:01:35;;;;;;;6.40;5.13;;;18.90;59.80;;;;;;5004729;28;20028;-66
2023/04/21 02:04:02;;;;;;;6.45;5.38;;;18.90;59.80;;;;;;5005987;28;20034;-67
2023/04/21 02:06:28;;;;;;;6.35;5.38;;;18.90;59.80;;;;;;4999874;28;20479;-66
2023/04/21 02:08:54;;;;;;;5.90;4.80;;;18.90;59.80;;;;;;4996299;28;20052;-67
2023/04/21 02:11:19;;;;;;;6.13;5.30;;;18.90;59.80;;;;;;5001842;28;20033;-67
2023/04/21 02:13:45;;;;;;;5.50;4.75;;;18.90;59.80;;;;;;4997633;28;20025;-66
2023/04/21 02:16:11;;;;;;;5.28;4.78;;;18.90;59.70;;;;;;5001782;28;20029;-67
2023/04/21 02:18:38;;;;;;;6.82;5.00;;;18.90;59.70;;;;;;5001798;28;20402;-67
2023/04/21 02:21:05;;;;;;;6.13;4.63;;;18.90;59.70;;;;;;4997915;28;20618;-67
2023/04/21 02:23:30;;;;;;;6.70;4.53;;;18.90;59.60;;;;;;4998984;28;20060;-66
2023/04/21 02:25:56;;;;;;;6.40;5.30;;;18.90;59.60;;;;;;5000251;28;20045;-65
2023/04/21 02:28:21;;;;;;;5.30;4.80;;;18.90;59.70;;;;;;5002783;28;20030;-66
2023/04/21 02:30:47;;;;;;;8.27;5.25;;;18.80;59.60;;;;;;4998187;28;20056;-67
2023/04/21 02:33:12;;;;;;;7.57;5.35;;;18.80;59.60;;;;;;5001013;28;20491;-66
2023/04/21 02:35:38;;;;;;;7.35;5.65;;;18.80;59.70;;;;;;4998153;28;20033;-66
2023/04/21 02:38:06;;;;;;;6.53;4.97;;;18.90;59.70;;;;;;4993641;28;20034;-67
2023/04/21 02:40:31;;;;;;;5.45;4.72;;;18.80;59.70;;;;;;4997807;28;20055;-67
2023/04/21 02:42:57;;;;;;;6.35;4.85;;;18.80;59.70;;;;;;4997574;28;20038;-66
2023/04/21 02:45:22;;;;;;;8.00;5.18;;;18.80;59.70;;;;;;4998591;28;20443;-65
2023/04/21 02:47:48;;;;;;;6.88;5.35;;;18.80;59.70;;;;;;4998594;28;20030;-66
2023/04/21 02:50:13;;;;;;;5.22;4.72;;;18.80;59.80;;;;;;4996321;28;20048;-67
2023/04/21 02:52:39;;;;;;;6.03;4.70;;;18.80;59.80;;;;;;4998464;28;20484;-66
2023/04/21 02:55:05;;;;;;;6.60;4.82;;;18.80;59.80;;;;;;5001709;28;20560;-67
2023/04/21 02:57:30;;;;;;;6.07;4.55;;;18.70;59.70;;;;;;5001968;28;20443;-67
2023/04/21 02:59:56;;;;;;;6.57;4.80;;;18.70;59.70;;;;;;5000124;28;20026;-67
2023/04/21 03:05:43;;;;;;;6.00;4.70;;;18.80;59.70;;;;;;4994965;28;20037;-66
2023/04/21 03:08:08;;;;;;;5.72;4.95;;;18.70;59.70;;;;;;4996099;28;20136;-67
2023/04/21 03:10:36;;;;;;;5.57;4.97;;;18.70;59.80;;;;;;4997459;28;20552;-67
2023/04/21 03:13:01;;;;;;;5.82;4.43;;;18.70;59.70;;;;;;5000880;28;20038;-67
2023/04/21 03:15:27;;;;;;;5.40;4.88;;;18.70;59.70;;;;;;4995712;28;20499;-67
2023/04/21 03:17:52;;;;;;;5.68;4.43;;;18.70;59.80;;;;;;4998452;28;20041;-66
2023/04/21 03:20:18;;;;;;;6.25;4.50;;;18.70;59.70;;;;;;4995766;28;20081;-67
2023/04/21 03:22:43;;;;;;;5.22;4.72;;;18.80;59.80;;;;;;4999554;28;20040;-67
2023/04/21 03:25:10;;;;;;;6.20;5.15;;;18.80;59.60;;;;;;5003356;28;20038;-68
2023/04/21 03:27:35;;;;;;;5.32;4.63;;;18.90;59.30;;;;;;4996188;28;20117;-66
2023/04/21 03:30:01;;;;;;;6.45;4.30;;;19.00;59.10;;;;;;5001093;28;20064;-66
2023/04/21 03:32:26;;;;;;;5.53;4.90;;;19.10;58.80;;;;;;4999526;28;20044;-67
2023/04/21 03:34:52;;;;;;;5.78;4.38;;;19.20;58.50;;;;;;4996601;28;20030;-67
2023/04/21 03:37:17;;;;;;;4.72;4.03;;;19.30;58.20;;;;;;5002332;28;20045;-66
2023/04/21 03:39:43;;;;;;;6.63;4.30;;;19.40;58.00;;;;;;4997086;28;20033;-66
2023/04/21 03:42:08;;;;;;;6.75;4.53;;;19.50;57.70;;;;;;4993120;28;20121;-67
2023/04/21 03:44:34;;;;;;;6.82;4.75;;;19.60;57.40;;;;;;4996306;28;20527;-66
2023/04/21 03:47:02;;;;;;;5.90;4.93;;;19.70;57.30;;;;;;4998574;28;20040;-66
2023/04/21 03:49:27;;;;;;;4.65;3.88;;;19.70;57.10;;;;;;4983636;28;20038;-67
2023/04/21 03:51:53;;;;;;;6.07;4.72;;;19.80;56.90;;;;;;4994285;28;20415;-67
2023/04/21 03:54:18;;;;;;;5.70;4.63;;;19.90;56.80;;;;;;5000149;28;20070;-67
2023/04/21 03:56:44;;;;;;;7.72;4.75;;;19.90;56.70;;;;;;4999204;28;20038;-66
2023/04/21 03:59:09;;;;;;;4.85;4.40;;;20.00;56.50;;;;;;4998647;28;20030;-67
2023/04/21 04:01:35;;;;;;;5.93;4.07;;;20.00;56.60;;;;;;4997814;28;20033;-67
2023/04/21 04:04:01;;;;;;;7.55;4.82;;;20.00;56.50;;;;;;4999813;28;20083;-66
2023/04/21 04:06:27;;;;;;;7.32;4.57;;;20.00;56.60;;;;;;4996798;28;20181;-66
2023/04/21 04:08:52;;;;;;;7.35;4.45;;;20.00;56.50;;;;;;4998825;28;20042;-67
2023/04/21 04:11:18;;;;;;;5.43;4.82;;;20.00;56.60;;;;;;4996308;28;20034;-67
2023/04/21 04:13:43;;;;;;;5.30;4.28;;;20.00;56.60;;;;;;4994770;28;20088;-66
2023/04/21 04:16:09;;;;;;;5.82;3.85;;;19.90;56.70;;;;;;4997584;28;20061;-67
2023/04/21 04:18:34;;;;;;;5.63;4.30;;;19.90;56.80;;;;;;4991503;28;20034;-67
2023/04/21 04:21:06;;;;;;;5.00;4.50;;;19.90;56.90;;;;;;4992952;28;20129;-67
2023/04/21 04:23:32;;;;;;;5.70;4.25;;;19.90;57.00;;;;;;5001022;28;20030;-67
2023/04/21 04:25:58;;;;;;;4.82;4.00;;;19.80;57.70;;;;;;5001252;28;20501;-66
2023/04/21 04:28:24;;;;;;;6.38;4.03;;;19.80;57.10;;;;;;4998273;28;20044;-67
2023/04/21 04:30:49;;;;;;;6.13;5.05;;;19.80;57.30;;;;;;4995993;28;20117;-66
2023/04/21 04:33:15;;;;;;;6.75;3.85;;;19.70;57.30;;;;;;5000784;28;20036;-67
2023/04/21 04:35:40;;;;;;;6.05;4.63;;;19.70;57.30;;;;;;4997141;28;20187;-67
2023/04/21 04:38:06;;;;;;;6.65;4.43;;;19.70;57.40;;;;;;4994225;28;20139;-67
2023/04/21 04:40:32;;;;;;;7.20;4.50;;;19.70;57.50;;;;;;4994252;28;20022;-67
2023/04/21 04:42:58;;;;;;;5.10;3.80;;;19.70;57.50;;;;;;4989034;28;20042;-67
2023/04/21 04:45:25;;;;;;;6.20;4.32;;;19.70;57.60;;;;;;4996441;28;20037;-67
2023/04/21 04:47:51;;;;;;;5.15;4.03;;;19.60;57.50;;;;;;4995954;28;20057;-67
2023/04/21 04:50:16;;;;;;;6.07;4.18;;;19.60;57.60;;;;;;4999424;28;20157;-67
2023/04/21 04:52:45;;;;;;;5.68;4.40;;;19.60;57.50;;;;;;5001188;28;20390;-67
2023/04/21 04:55:11;;;;;;;4.45;4.00;;;19.60;57.60;;;;;;5001388;28;20436;-66
2023/04/21 04:57:37;;;;;;;6.63;4.10;;;19.60;57.50;;;;;;4999588;28;20044;-67
2023/04/21 05:00:05;;;;;;;5.47;4.50;;;19.60;57.60;;;;;;4993899;28;20392;-67
2023/04/21 05:02:31;;;;;;;5.35;4.43;;;19.60;57.60;;;;;;4995047;28;20424;-66
2023/04/21 05:04:56;;;;;;;5.10;4.22;;;19.60;57.70;;;;;;4999740;28;20113;-65
2023/04/21 05:07:22;;;;;;;4.53;3.90;;;19.60;57.70;;;;;;4993429;28;20164;-66
2023/04/21 05:09:47;;;;;;;6.25;4.38;;;19.60;57.70;;;;;;4998326;28;20512;-66
2023/04/21 05:12:13;;;;;;;4.95;4.40;;;19.60;57.70;;;;;;4995418;28;20030;-66
2023/04/21 05:14:38;;;;;;;6.75;4.65;;;19.60;57.80;;;;;;4995466;28;20045;-66
2023/04/21 05:17:04;;;;;;;5.55;4.38;;;19.60;57.80;;;;;;4991020;28;20030;-68
2023/04/21 05:19:33;;;;;;;5.43;4.40;;;19.60;57.90;;;;;;4994106;28;20073;-66
2023/04/21 05:22:02;;;;;;;5.72;4.13;;;19.60;58.00;;;;;;4997111;28;20129;-68
2023/04/21 05:24:27;;;;;;;7.65;5.10;;;19.60;58.10;;;;;;4999009;28;20109;-65
2023/04/21 05:26:53;;;;;;;9.88;4.25;;;19.60;58.20;;;;;;4999985;28;20054;-64
2023/04/21 05:29:18;;;;;;;9.30;4.07;;;19.60;58.20;;;;;;4996431;28;20119;-65
2023/04/21 05:31:44;;;;;;;9.05;4.43;;;19.60;58.50;;;;;;4999551;28;20039;-66
2023/04/21 05:34:09;;;;;;;9.63;4.20;;;19.60;58.50;;;;;;4998061;28;20619;-65
2023/04/21 05:36:35;;;;;;;6.85;4.22;;;19.60;58.50;;;;;;4994630;28;20045;-65
2023/04/21 05:39:00;;;;;;;6.43;4.20;;;19.60;58.60;;;;;;4992265;28;20029;-65
2023/04/21 05:41:26;;;;;;;14.95;5.20;;;19.60;58.50;;;;;;4992744;28;20042;-65
2023/04/21 05:43:51;;;;;;;10.60;3.97;;;19.60;58.60;;;;;;4994413;28;20666;-65
2023/04/21 05:46:17;;;;;;;6.28;4.05;;;19.60;58.60;;;;;;4992847;28;20026;-66
2023/04/21 05:48:42;;;;;;;12.98;4.70;;;19.60;58.70;;;;;;4992787;28;20529;-64
2023/04/21 05:51:16;;;;;;;11.10;4.45;;;19.60;58.90;;;;;;5000748;28;20038;-65
2023/04/21 05:53:44;;;;;;;9.85;4.60;;;19.60;59.00;;;;;;4999299;28;20030;-66
2023/04/21 05:56:09;;;;;;;5.80;4.38;;;19.60;59.10;;;;;;4998643;28;20030;-64
2023/04/21 05:58:36;;;;;;;11.30;4.35;;;19.60;59.10;;;;;;4996746;28;20022;-65
2023/04/21 06:01:01;;;;;;;10.40;4.68;;;19.60;59.20;;;;;;4997741;28;20030;-66
2023/04/21 06:03:30;;;;;;;9.18;4.20;;;19.50;59.10;;;;;;4995960;28;20026;-65
2023/04/21 06:05:56;;;;;;;7.28;4.20;;;19.60;59.20;;;;;;4995792;28;20150;-65
2023/04/21 06:08:22;;;;;;;8.18;4.28;;;19.60;59.20;;;;;;4991974;28;20031;-64
2023/04/21 06:10:48;;;;;;;9.57;4.72;;;19.50;59.10;;;;;;4995103;28;20505;-64
2023/04/21 06:13:13;;;;;;;6.93;3.78;;;19.60;59.10;;;;;;4991826;28;20057;-63
2023/04/21 06:15:39;;;;;;;5.15;4.15;;;19.60;59.10;;;;;;4994194;28;20065;-62
2023/04/21 06:18:04;;;;;;;7.88;4.68;;;19.50;59.00;;;;;;4992638;28;20049;-64
2023/04/21 06:20:30;;;;;;;8.23;4.40;;;19.50;59.00;;;;;;5000396;28;20040;-63
2023/04/21 06:22:55;;;;;;;4.88;3.80;;;19.50;58.90;;;;;;4997459;28;20045;-63
2023/04/21 06:25:21;;;;;;;10.27;4.60;;;19.50;58.90;;;;;;4995027;28;20455;-63
2023/04/21 06:27:46;;;;;;;6.32;3.80;;;19.50;58.90;;;;;;4995265;28;20038;-64
2023/04/21 06:30:12;;;;;;;8.05;5.10;;;19.50;58.90;;;;;;4997289;28;20034;-65
2023/04/21 06:32:38;;;;;;;11.00;4.72;;;19.50;58.90;;;;;;4994858;28;20034;-64
2023/04/21 06:35:04;;;;;;;11.23;5.40;;;19.50;58.80;;;;;;4993048;28;20038;-68
2023/04/21 06:37:29;;;;;;;17.85;8.18;;;19.50;59.00;;;;;;4991532;28;20504;-62
2023/04/21 06:39:55;;;;;;;22.88;10.38;;;19.50;59.10;;;;;;4987909;28;20034;-66
2023/04/21 06:42:20;;;;;;;23.17;10.75;;;19.50;59.30;;;;;;4992062;28;20034;-66
2023/04/21 06:44:46;;;;;;;25.65;12.02;;;19.50;59.40;;;;;;4998768;28;20489;-67
2023/04/21 06:47:11;;;;;;;24.92;12.23;;;19.50;59.60;;;;;;4995953;28;20042;-67
2023/04/21 06:49:37;;;;;;;25.58;11.27;;;19.50;59.80;;;;;;5000827;28;20480;-67
2023/04/21 06:52:03;;;;;;;25.45;12.15;;;19.50;59.90;;;;;;5001457;28;20038;-67
2023/04/21 06:54:28;;;;;;;26.90;11.23;;;19.50;59.90;;;;;;5000911;28;20041;-67
2023/04/21 06:56:55;;;;;;;26.40;10.80;;;19.50;60.00;;;;;;5000858;28;20085;-67
2023/04/21 06:59:21;;;;;;;20.17;10.05;;;19.50;59.90;;;;;;4996946;28;20082;-67
2023/04/21 07:01:51;;;;;;;25.17;9.35;;;19.50;59.90;;;;;;4997629;28;20030;-67
2023/04/21 07:04:20;;;;;;;15.88;8.93;;;19.50;60.10;;;;;;4997128;28;20049;-66
2023/04/21 07:06:46;;;;;;;23.33;8.15;;;19.50;60.40;;;;;;4994639;28;20402;-67
2023/04/21 07:09:11;;;;;;;21.13;9.30;;;19.50;60.40;;;;;;4991646;28;20067;-66
2023/04/21 07:11:37;;;;;;;17.50;8.25;;;19.50;60.40;;;;;;4999248;28;20528;-65
2023/04/21 07:14:03;;;;;;;18.10;8.48;;;19.50;60.20;;;;;;4995744;28;20034;-65
2023/04/21 07:16:29;;;;;;;20.88;8.43;;;19.50;60.30;;;;;;4995991;28;20039;-65
2023/04/21 07:18:55;;;;;;;21.05;7.93;;;19.40;60.20;;;;;;4991221;28;20125;-65
2023/04/21 07:21:21;;;;;;;21.70;8.40;;;19.40;60.20;;;;;;5070062;23;20041;-54
2023/04/21 07:23:46;;;;;;;16.63;7.32;;;19.40;60.30;;;;;;5029034;28;20333;-56
2023/04/21 07:26:12;;;;;;;18.23;7.25;;;19.40;60.20;;;;;;5039093;28;20390;-49
2023/04/21 07:28:39;;;;;;;15.27;7.68;;;19.40;60.20;;;;;;5036555;28;20764;-50
2023/04/21 07:31:05;;;;;;;17.48;5.88;;;19.30;60.10;;;;;;5033825;28;20383;-53
2023/04/21 07:33:31;;;;;;;12.73;7.05;;;19.30;60.10;;;;;;5031006;28;20032;-55
2023/04/21 07:35:57;;;;;;;16.33;5.93;;;19.30;60.20;;;;;;5032015;28;20029;-55
2023/04/21 07:38:22;;;;;;;16.35;6.97;;;19.30;60.10;;;;;;5029577;28;20552;-52
2023/04/21 07:40:48;;;;;;;18.45;6.85;;;19.30;60.20;;;;;;5029917;28;20034;-51
2023/04/21 07:43:14;;;;;;;14.23;7.13;;;19.30;60.10;;;;;;5031650;28;20116;-52
2023/04/21 07:45:39;;;;;;;11.32;6.43;;;19.20;60.10;;;;;;5032470;28;20533;-58
2023/04/21 07:48:06;;;;;;;17.58;7.28;;;19.30;60.10;;;;;;5033265;28;20076;-51
2023/04/21 07:50:32;;;;;;;16.35;5.68;;;19.30;60.10;;;;;;5029811;28;20140;-56
2023/04/21 07:52:57;;;;;;;19.45;5.55;;;19.20;60.10;;;;;;5032420;28;20030;-52
2023/04/21 07:55:23;;;;;;;12.05;6.40;;;19.20;60.00;;;;;;5043887;23;20794;-53
2023/04/21 07:57:49;;;;;;;14.13;6.30;;;19.20;60.00;;;;;;5034661;28;20124;-48
2023/04/21 08:00:15;;;;;;;10.68;6.25;;;19.20;60.00;;;;;;5029983;28;20398;-53
2023/04/21 08:02:40;;;;;;;14.20;5.55;;;19.20;60.00;;;;;;5030768;28;20036;-56
2023/04/21 08:05:06;;;;;;;8.82;5.45;;;19.20;59.90;;;;;;5030395;28;20026;-50
2023/04/21 08:07:32;;;;;;;11.48;6.30;;;19.20;59.90;;;;;;5032457;28;20518;-52
2023/04/21 08:09:58;;;;;;;10.70;5.53;;;19.20;59.90;;;;;;5033942;28;20040;-52
2023/04/21 08:12:24;;;;;;;14.35;5.35;;;19.20;59.90;;;;;;5035317;28;20037;-53
2023/04/21 08:14:50;;;;;;;11.88;6.13;;;19.20;59.90;;;;;;5029662;28;20082;-52
2023/04/21 08:17:16;;;;;;;13.50;6.13;;;19.20;59.90;;;;;;5032677;28;20037;-56
2023/04/21 08:19:41;;;;;;;8.52;5.63;;;19.20;59.90;;;;;;5032608;28;20052;-57
2023/04/21 08:22:07;;;;;;;11.15;5.03;;;19.20;59.80;;;;;;5035405;28;20482;-56
2023/04/21 08:24:33;;;;;;;9.73;5.38;;;19.20;59.80;;;;;;5034807;28;20055;-57
2023/04/21 08:26:58;;;;;;;10.68;5.70;;;19.20;59.80;;;;;;5032341;28;20098;-53
2023/04/21 08:29:24;;;;;;;7.30;4.80;;;19.20;59.70;;;;;;5028575;28;20034;-53
2023/04/21 08:31:49;;;;;;;9.60;5.47;;;19.20;59.70;;;;;;5030865;28;20136;-51
2023/04/21 08:34:15;;;;;;;6.82;5.00;;;19.20;59.70;;;;;;5029456;28;20033;-53
2023/04/21 08:36:41;;;;;;;13.15;4.90;;;19.20;59.60;;;;;;5035928;28;20435;-52
2023/04/21 08:39:07;;;;;;;11.18;5.40;;;19.20;59.60;;;;;;5031498;28;20029;-51
2023/04/21 08:41:33;;;;;;;10.23;4.75;;;19.20;59.50;;;;;;5037217;28;20033;-51
2023/04/21 08:43:58;;;;;;;6.57;5.18;;;19.20;59.50;;;;;;5032197;28;20025;-55
2023/04/21 08:46:26;;;;;;;11.60;5.47;;;19.20;59.50;;;;;;5029677;28;20485;-49
2023/04/21 08:48:52;;;;;;;7.38;5.13;;;19.20;59.50;;;;;;5034950;28;20414;-54
2023/04/21 08:51:22;;;;;;;14.93;5.68;;;19.20;59.50;;;;;;5028359;28;20025;-54
2023/04/21 08:53:47;;;;;;;7.95;5.15;;;19.20;59.50;;;;;;5033274;28;20106;-55
2023/04/21 08:56:13;;;;;;;9.25;4.80;;;19.20;59.50;;;;;;5032844;28;20080;-55
2023/04/21 08:58:38;;;;;;;15.55;5.13;;;19.20;59.60;;;;;;5033141;28;20547;-51
2023/04/21 09:01:04;;;;;;;10.98;5.53;;;19.20;59.60;;;;;;5030665;28;20033;-55
2023/04/21 09:03:30;;;;;;;14.32;5.53;;;19.20;59.60;;;;;;5032416;28;20559;-51
2023/04/21 09:06:06;;;;;;;19.02;6.30;;;19.20;59.70;;;;;;5032821;28;20406;-53
2023/04/21 09:08:33;;;;;;;12.90;5.18;;;19.20;59.80;;;;;;5035885;28;20108;-53
2023/04/21 09:11:00;;;;;;;12.02;5.22;;;19.20;59.90;;;;;;5032324;28;20037;-55
2023/04/21 09:13:33;;;;;;;16.73;5.75;;;19.20;59.90;;;;;;5037989;28;20028;-53
2023/04/21 09:16:01;;;;;;;14.23;4.97;;;19.20;59.90;;;;;;5036833;28;20033;-55
2023/04/21 09:18:33;;;;;;;10.65;4.65;;;19.20;60.00;;;;;;5026034;28;20561;-48
2023/04/21 09:21:10;;;;;;;10.65;5.35;;;19.20;59.90;;;;;;5036156;28;20072;-51
2023/04/21 09:23:43;;;;;;;12.23;4.72;;;19.20;59.80;;;;;;5033277;28;20041;-52
2023/04/21 09:26:09;;;;;;;11.20;5.13;;;19.20;59.70;;;;;;5029766;28;20548;-57
2023/04/21 09:28:35;;;;;;;10.77;4.68;;;19.20;59.70;;;;;;5031135;28;20086;-54
2023/04/21 09:31:00;;;;;;;15.75;5.22;;;19.20;59.60;;;;;;5030985;28;20025;-51
2023/04/21 09:33:26;;;;;;;12.25;4.57;;;19.20;59.50;;;;;;5033389;28;20021;-51
2023/04/21 09:35:52;;;;;;;10.13;4.88;;;19.20;59.50;;;;;;5033838;28;20036;-57
2023/04/21 09:38:21;;;;;;;8.95;4.82;;;19.20;59.50;;;;;;5030564;28;20025;-51
2023/04/21 09:40:56;;;;;;;8.88;4.45;;;19.20;59.50;;;;;;5033126;28;20025;-51
2023/04/21 09:43:22;;;;;;;;;;;19.20;59.40;;;;;;5033182;28;20128;-53
2023/04/21 09:45:48;;;;;;;7.95;4.80;;;19.20;59.40;;;;;;5029015;28;19953;-55
2023/04/21 09:48:16;;;;;;;7.25;4.47;;;19.20;59.30;;;;;;5030655;28;20036;-53
2023/04/21 09:50:42;;;;;;;16.90;4.50;;;19.20;59.30;;;;;;5028266;28;20393;-53
2023/04/21 09:53:13;;;;;;;7.20;3.88;;;19.20;59.30;;;;;;5031529;28;20022;-52
2023/04/21 09:55:41;;;;;;;8.38;4.47;;;19.20;59.30;;;;;;5030729;28;20045;-52
2023/04/21 09:58:08;;;;;;;6.50;4.60;;;19.20;59.30;;;;;;5031322;28;20048;-51
2023/04/21 10:00:38;;;;;;;9.98;4.53;;;19.20;59.30;;;;;;5030417;28;20025;-55
2023/04/21 10:03:09;;;;;;;10.55;4.88;;;19.20;59.30;;;;;;5030481;28;20243;-52
2023/04/21 10:05:35;;;;;;;11.40;4.90;;;19.20;59.30;;;;;;5035878;28;20040;-54
2023/04/21 10:08:00;;;;;;;10.73;5.28;;;19.20;59.30;;;;;;5032504;28;20040;-52
2023/04/21 10:10:30;;;;;;;12.02;5.07;;;19.20;59.30;;;;;;5031707;28;20033;-53
2023/04/21 10:12:57;;;;;;;10.38;4.93;;;19.30;59.40;;;;;;5030284;28;20033;-58
2023/04/21 10:15:32;;;;;;;7.55;4.32;;;19.20;59.30;;;;;;5033509;28;20039;-54
2023/04/21 10:18:37;;;;;;;10.60;5.30;;;19.20;59.30;;;;;;5028943;28;20029;-56
2023/04/21 10:21:10;;;;;;;10.90;4.90;;;19.30;59.30;;;;;;4977281;28;20403;-54
2023/04/21 10:23:43;;;;;;;10.95;5.05;;;19.20;59.30;;;;;;5026174;28;20029;-55
2023/04/21 10:26:24;;;;;;;10.35;4.75;;;19.30;59.40;;;;;;5035194;28;20030;-55
2023/04/21 10:28:59;;;;;;;11.23;4.50;;;19.30;59.40;;;;;;5035563;28;20087;-58
2023/04/21 10:31:34;;;;;;;10.05;5.00;;;19.30;59.40;;;;;;5037364;28;21063;-56
2023/04/21 10:34:12;;;;;;;7.75;4.40;;;19.30;59.40;;;;;;5035395;28;20044;-54
2023/04/21 10:36:58;;;;;;;7.97;4.20;;;19.30;59.40;;;;;;5035903;28;20038;-51
2023/04/21 10:39:36;;;;;;;9.07;4.57;;;19.30;59.30;;;;;;5035356;28;20054;-51
2023/04/21 10:42:11;;;;;;;8.52;3.95;;;19.30;59.40;;;;;;5033813;28;20029;-59
2023/04/21 10:45:01;;;;;;;7.63;4.03;;;19.30;59.40;;;;;;5032157;28;20037;-55
2023/04/21 10:47:35;;;;;;;6.47;4.18;;;19.30;59.40;;;;;;5034574;28;20022;-53
2023/04/21 10:50:10;;;;;;;9.60;4.20;;;19.30;59.40;;;;;;5037047;28;20037;-57
2023/04/21 10:52:36;;;;;;;8.07;3.92;;;19.30;59.40;;;;;;5035644;28;20079;-52
2023/04/21 10:55:05;;;;;;;7.25;4.25;;;19.20;59.40;;;;;;5035152;28;20077;-55
2023/04/21 10:57:32;;;;;;;5.97;3.67;;;19.20;59.40;;;;;;5033805;28;20327;-51
2023/04/21 10:59:58;;;;;;;9.85;4.85;;;19.30;59.50;;;;;;5033632;28;20058;-53
2023/04/21 11:02:24;;;;;;;6.38;4.30;;;19.20;59.40;;;;;;5038098;28;20120;-53
2023/04/21 11:04:51;;;;;;;5.10;4.00;;;19.30;59.40;;;;;;5035538;28;20029;-55
2023/04/21 11:07:18;;;;;;;7.07;4.80;;;19.20;59.40;;;;;;5030521;28;20095;-56
2023/04/21 11:09:46;;;;;;;7.85;4.40;;;19.20;59.50;;;;;;5036983;28;20498;-52
2023/04/21 11:12:14;;;;;;;8.52;4.35;;;19.20;59.40;;;;;;5032283;28;20077;-57
2023/04/21 11:14:43;;;;;;;7.38;4.22;;;19.20;59.60;;;;;;5033358;28;20083;-56
2023/04/21 11:17:17;;;;;;;6.32;3.70;;;19.20;59.50;;;;;;5038405;28;20033;-56
2023/04/21 11:19:53;;;;;;;7.32;4.18;;;19.20;59.50;;;;;;5033367;28;20538;-56
2023/04/21 11:22:20;;;;;;;7.50;4.32;;;19.20;59.50;;;;;;5034760;28;20032;-51
2023/04/21 11:24:47;;;;;;;5.60;3.67;;;19.20;59.50;;;;;;5032300;28;20032;-55
2023/04/21 11:27:14;;;;;;;9.75;3.95;;;19.20;59.60;;;;;;5034925;28;20060;-52
2023/04/21 11:29:40;;;;;;;11.23;4.55;;;19.20;59.50;;;;;;5034846;28;20673;-54
2023/04/21 11:32:07;;;;;;;8.15;4.95;;;19.20;59.60;;;;;;5035711;28;20037;-54
2023/04/21 11:34:32;;;;;;;9.82;4.85;;;19.20;59.60;;;;;;5034833;28;20260;-55
2023/04/21 11:36:58;;;;;;;10.63;4.07;;;19.20;59.60;;;;;;5031597;28;20061;-55
2023/04/21 11:39:23;;;;;;;11.38;5.60;;;19.20;59.60;;;;;;5038508;28;20028;-59
2023/04/21 11:41:50;;;;;;;7.82;4.43;;;19.20;59.70;;;;;;5033765;28;20037;-54
2023/04/21 11:44:36;;;;;;;10.98;4.97;;;19.20;59.60;;;;;;5034668;28;20592;-49
2023/04/21 11:47:11;;;;;;;;;;;19.20;59.60;;;;;;5036199;28;20025;-54
2023/04/21 11:49:51;;;;;;;11.23;4.63;;;19.20;59.60;;;;;;5032052;28;20021;-49
2023/04/21 11:52:20;;;;;;;8.52;4.38;;;19.20;59.60;;;;;;5035260;28;20063;-56
2023/04/21 11:54:46;;;;;;;13.02;4.95;;;19.20;59.50;;;;;;5034680;28;20055;-50
2023/04/21 11:57:11;;;;;;;7.78;3.90;;;19.30;59.60;;;;;;5035230;28;20482;-56
2023/04/21 11:59:37;;;;;;;10.15;4.13;;;19.20;59.60;;;;;;5036420;28;21594;-56
2023/04/21 12:02:02;;;;;;;9.18;4.07;;;19.20;59.50;;;;;;5032232;28;20033;-57
2023/04/21 12:04:28;;;;;;;7.25;4.57;;;19.20;59.50;;;;;;5034627;28;20029;-53
2023/04/21 12:06:59;;;;;;;6.90;4.43;;;19.20;59.40;;;;;;5036315;28;20362;-56
2023/04/21 12:09:25;;;;;;;9.45;4.60;;;19.20;59.40;;;;;;5033795;28;20268;-55
2023/04/21 12:11:53;;;;;;;6.93;4.03;;;19.20;59.50;;;;;;5034186;28;20244;-56
2023/04/21 12:14:21;;;;;;;6.55;4.00;;;19.20;59.50;;;;;;5032427;28;20178;-55
2023/04/21 12:16:52;;;;;;;6.72;3.65;;;19.30;59.50;;;;;;5035626;28;20029;-54
2023/04/21 12:19:41;;;;;;;9.02;4.90;;;19.20;59.50;;;;;;5034277;28;20240;-59
2023/04/21 12:22:12;;;;;;;12.48;3.95;;;19.30;59.50;;;;;;5033217;28;20327;-54
2023/04/21 12:24:38;;;;;;;8.55;3.80;;;19.30;59.40;;;;;;5031572;28;20430;-56
2023/04/21 12:27:05;;;;;;;10.40;4.80;;;19.30;59.40;;;;;;5037151;28;20058;-53
2023/04/21 12:29:30;;;;;;;6.60;4.22;;;19.30;59.40;;;;;;5033084;28;20128;-51
2023/04/21 12:31:56;;;;;;;6.93;3.63;;;19.30;59.40;;;;;;5030948;28;20120;-58
2023/04/21 12:34:21;;;;;;;5.28;4.25;;;19.30;59.30;;;;;;5028459;28;20232;-53
2023/04/21 12:36:47;;;;;;;5.40;3.83;;;19.30;59.30;;;;;;5036689;28;20664;-49
2023/04/21 12:39:12;;;;;;;7.75;4.53;;;19.30;59.30;;;;;;5036870;28;20474;-58
2023/04/21 12:41:39;;;;;;;7.53;4.28;;;19.30;59.30;;;;;;5027366;28;20064;-57
2023/04/21 12:44:05;;;;;;;4.90;3.90;;;19.30;59.20;;;;;;5033409;28;20036;-55
2023/04/21 12:46:31;;;;;;;8.95;4.57;;;19.30;59.10;;;;;;5035416;28;20036;-52